ADDS METAR Data INFO
IDs: Format: Raw Decoded Include TAF

Data at: 0734 UTC 18 Oct 2017

KMVE 180712Z AUTO 20006KT 10SM CLR 12/07 A2979 RMK AO2
KMVE 180652Z AUTO 22007KT 10SM CLR 12/07 A2980 RMK AO2
KMVE 180632Z AUTO 21007KT 10SM CLR 13/07 A2980 RMK AO2
KMVE 180612Z AUTO 21008KT 10SM CLR 13/06 A2980 RMK AO2
KMVE 180552Z AUTO 22007G14KT 10SM CLR 13/06 A2981 RMK AO2
KMVE 180532Z AUTO 22011G15KT 10SM CLR 13/06 A2982 RMK AO2
KMVE 180512Z AUTO 23008KT 10SM CLR 13/06 A2982 RMK AO2
KMVE 180452Z AUTO 22009KT 10SM CLR 13/05 A2983 RMK AO2
KMVE 180432Z AUTO 22009KT 10SM CLR 12/04 A2984 RMK AO2
KMVE 180412Z AUTO 21006KT 10SM CLR 13/05 A2985 RMK AO2
KMVE 180352Z AUTO 21005KT 10SM CLR 13/05 A2985 RMK AO2
KMVE 180332Z AUTO 22007KT 10SM CLR 13/05 A2986 RMK AO2
KMVE 180312Z AUTO 22006KT 10SM CLR 14/05 A2986 RMK AO2
KMVE 180252Z AUTO 22007KT 10SM CLR 14/04 A2985 RMK AO2
KMVE 180232Z AUTO 22008KT 10SM CLR 14/04 A2986 RMK AO2
KMVE 180212Z AUTO 21005KT 10SM CLR 15/04 A2986 RMK AO2
KMVE 180152Z AUTO 22006KT 10SM CLR 16/04 A2986 RMK AO2
KMVE 180132Z AUTO 21006KT 10SM CLR 16/04 A2986 RMK AO2
KMVE 180112Z AUTO 21006KT 10SM CLR 17/04 A2986 RMK AO2
KMVE 180052Z AUTO 21005KT 10SM CLR 17/03 A2987 RMK AO2
KMVE 180031Z AUTO 20005KT 10SM CLR 17/03 A2987 RMK AO2
KMVE 180012Z AUTO 21004KT 10SM CLR 17/04 A2987 RMK AO2
KMVE 172352Z AUTO 21004KT 10SM CLR 18/03 A2987 RMK AO2
KMVE 172332Z AUTO 20003KT 10SM CLR 20/03 A2987 RMK AO2
KMVE 172312Z AUTO 21003KT 10SM CLR 22/04 A2987 RMK AO2
KMVE 172252Z AUTO 23004KT 10SM CLR 23/03 A2988 RMK AO2
KMVE 172232Z AUTO 24005KT 10SM CLR 24/04 A2988 RMK AO2
KMVE 172212Z AUTO 25005KT 10SM CLR 25/03 A2989 RMK AO2
KMVE 172152Z AUTO 25008KT 10SM CLR 26/02 A2989 RMK AO2
KMVE 172132Z AUTO 26008KT 10SM CLR 27/02 A2989 RMK AO2
KMVE 172112Z AUTO 28009KT 10SM CLR 27/02 A2990 RMK AO2
KMVE 172052Z AUTO 29006KT 10SM CLR 27/02 A2991 RMK AO2
KMVE 172032Z AUTO 29003KT 10SM CLR 27/03 A2991 RMK AO2
KMVE 172012Z AUTO 27007KT 10SM CLR 27/03 A2992 RMK AO2
KMVE 171952Z AUTO 28006KT 10SM CLR 27/02 A2992 RMK AO2
KMVE 171932Z AUTO 28007KT 240V300 10SM CLR 27/03 A2993 RMK AO2
KMVE 171912Z AUTO 26006KT 10SM CLR 26/04 A2994 RMK AO2
KMVE 171852Z AUTO 23008KT 10SM CLR 26/07 A2995 RMK AO2
KMVE 171832Z AUTO 23003KT 10SM CLR 24/07 A2996 RMK AO2
KMVE 171812Z AUTO 24006KT 10SM CLR 23/07 A2997 RMK AO2
KMVE 171752Z AUTO 25004KT 10SM VCTS CLR 23/06 A2998 RMK AO2 LTG DSNT S
KMVE 171732Z AUTO 23004KT 10SM CLR 22/06 A2999 RMK AO2
KMVE 171712Z AUTO 00000KT 10SM CLR 22/08 A2999 RMK AO2
KMVE 171652Z AUTO 00000KT 10SM CLR 21/07 A3000 RMK AO2
KMVE 171632Z AUTO 00000KT 10SM CLR 20/06 A3001 RMK AO2
KMVE 171612Z AUTO 00000KT 10SM CLR 19/06 A3001 RMK AO2
KMVE 171552Z AUTO 00000KT 7SM CLR 18/06 A3001 RMK AO2
KMVE 171531Z AUTO 00000KT 7SM CLR 17/08 A3001 RMK AO2
KMVE 171512Z AUTO 00000KT 10SM CLR 15/08 A3001 RMK AO2
KMVE 171452Z AUTO 00000KT 10SM CLR 14/09 A3001 RMK AO2
KMVE 171432Z AUTO 00000KT 10SM CLR 13/09 A3001 RMK AO2
KMVE 171412Z AUTO 00000KT 10SM CLR 11/08 A3001 RMK AO2
KMVE 171352Z AUTO 00000KT 10SM CLR 08/06 A3001 RMK AO2
KMVE 171332Z AUTO 00000KT 10SM CLR 07/04 A3001 RMK AO2
KMVE 171312Z AUTO 00000KT 10SM CLR 04/02 A3000 RMK AO2
KMVE 171252Z AUTO 23003KT 10SM CLR 03/01 A3000 RMK AO2
KMVE 171232Z AUTO 00000KT 10SM CLR 03/01 A3000 RMK AO2
KMVE 171212Z AUTO 00000KT 10SM CLR 04/01 A3000 RMK AO2
KMVE 171152Z AUTO 00000KT 10SM CLR 04/01 A3000 RMK AO2
KMVE 171132Z AUTO 00000KT 10SM CLR 03/01 A3000 RMK AO2
KMVE 171112Z AUTO 00000KT 10SM CLR 04/01 A3001 RMK AO2
KMVE 171052Z AUTO 00000KT 10SM CLR 06/02 A3000 RMK AO2
KMVE 171032Z AUTO 00000KT 10SM CLR 06/02 A2999 RMK AO2
KMVE 171012Z AUTO 00000KT 10SM CLR 07/02 A2999 RMK AO2
KMVE 170952Z AUTO 00000KT 10SM CLR 07/02 A2998 RMK AO2
KMVE 170932Z AUTO 00000KT 10SM CLR 07/03 A2998 RMK AO2
KMVE 170912Z AUTO 28004KT 10SM CLR 08/04 A2997 RMK AO2
KMVE 170852Z AUTO 29005KT 10SM CLR 09/04 A2997 RMK AO2
KMVE 170832Z AUTO 29005KT 10SM CLR 09/04 A2997 RMK AO2
KMVE 170812Z AUTO 29005KT 10SM CLR 09/04 A2998 RMK AO2
KMVE 170752Z AUTO 29004KT 10SM CLR 09/04 A2998 RMK AO2
KMVE 170732Z AUTO 29004KT 10SM CLR 09/04 A2998 RMK AO2
KMVE 170711Z AUTO 29004KT 10SM CLR 09/04 A2998 RMK AO2
KMVE 170652Z AUTO 29003KT 10SM CLR 09/04 A2997 RMK AO2
KMVE 170632Z AUTO 28004KT 10SM CLR 09/04 A2997 RMK AO2
KMVE 170611Z AUTO 28003KT 10SM CLR 09/03 A2997 RMK AO2
KMVE 170552Z AUTO 28003KT 10SM CLR 09/03 A2996 RMK AO2
KMVE 170532Z AUTO 00000KT 10SM CLR 10/04 A2996 RMK AO2
KMVE 170511Z AUTO 29003KT 10SM CLR 10/03 A2996 RMK AO2
KMVE 170452Z AUTO 00000KT 10SM CLR 10/03 A2996 RMK AO2
KMVE 170432Z AUTO 29003KT 10SM CLR 11/04 A2996 RMK AO2
KMVE 170411Z AUTO 29003KT 10SM CLR 12/04 A2995 RMK AO2
KMVE 170352Z AUTO 27005KT 10SM CLR 12/04 A2995 RMK AO2
KMVE 170332Z AUTO 28004KT 10SM CLR 12/04 A2996 RMK AO2
KMVE 170312Z AUTO 29003KT 10SM CLR 12/04 A2996 RMK AO2
KMVE 170252Z AUTO 27003KT 10SM CLR 12/03 A2996 RMK AO2
KMVE 170232Z AUTO 27003KT 10SM CLR 12/02 A2996 RMK AO2
KMVE 170212Z AUTO 26004KT 10SM CLR 12/03 A2996 RMK AO2
KMVE 170152Z AUTO 26003KT 10SM CLR 12/01 A2995 RMK AO2
KMVE 170132Z AUTO 25004KT 10SM CLR 12/01 A2995 RMK AO2
KMVE 170112Z AUTO 24005KT 10SM CLR 12/02 A2995 RMK AO2
KMVE 170052Z AUTO 24005KT 10SM CLR 13/01 A2995 RMK AO2
KMVE 170032Z AUTO 24004KT 10SM CLR 13/01 A2995 RMK AO2
KMVE 170012Z AUTO 24005KT 10SM CLR 13/01 A2995 RMK AO2
KMVE 162352Z AUTO 23004KT 10SM CLR 14/01 A2996 RMK AO2
KMVE 162332Z AUTO 23006KT 10SM CLR 16/02 A2995 RMK AO2
KMVE 162312Z AUTO 24005KT 10SM CLR 17/02 A2996 RMK AO2
KMVE 162252Z AUTO 24004KT 10SM CLR 19/02 A2996 RMK AO2
KMVE 162232Z AUTO 26006KT 10SM CLR 20/02 A2997 RMK AO2
KMVE 162212Z AUTO 25009G16KT 10SM CLR 23/02 A2997 RMK AO2
KMVE 162152Z AUTO 27008KT 10SM CLR 23/02 A2998 RMK AO2
KMVE 162132Z AUTO 25009KT 10SM CLR 23/03 A2998 RMK AO2
KMVE 162112Z AUTO 25010G18KT 10SM CLR 23/02 A2998 RMK AO2
KMVE 162052Z AUTO 24010G18KT 10SM CLR 23/02 A2999 RMK AO2
KMVE 162032Z AUTO 25007G15KT 10SM CLR 23/03 A2999 RMK AO2
KMVE 162012Z AUTO 25008KT 10SM CLR 23/03 A2999 RMK AO2
KMVE 161952Z AUTO 24008G14KT 10SM CLR 22/03 A3000 RMK AO2